createdAt,value
2022-08-28T00:00:39.786Z,23.27
2022-08-28T00:06:41.545Z,17.85
2022-08-28T00:12:44.826Z,16.80
2022-08-28T00:18:47.237Z,15.55
2022-08-28T00:24:49.166Z,19.08
2022-08-28T00:30:54.638Z,17.58
2022-08-28T00:36:56.555Z,13.90
2022-08-28T00:43:00.386Z,17.05
2022-08-28T00:49:02.325Z,15.05
2022-08-28T00:55:25.130Z,15.50
2022-08-28T01:01:26.996Z,18.52
2022-08-28T01:07:28.942Z,18.70
2022-08-28T01:13:31.455Z,19.10
2022-08-28T01:19:41.567Z,25.00
2022-08-28T01:25:43.474Z,18.23
2022-08-28T01:31:45.267Z,19.98
2022-08-28T01:37:47.588Z,23.25
2022-08-28T01:43:49.353Z,24.10
2022-08-28T01:49:51.671Z,21.58
2022-08-28T01:55:56.067Z,20.35
2022-08-28T02:01:58.482Z,26.65
2022-08-28T02:08:02.409Z,15.52
2022-08-28T02:14:04.270Z,20.15
2022-08-28T02:20:07.416Z,20.13
2022-08-28T02:26:09.762Z,21.30
2022-08-28T02:32:12.613Z,17.05
2022-08-28T02:38:14.453Z,23.90
2022-08-28T02:44:17.308Z,17.05
2022-08-28T02:50:22.404Z,15.93
2022-08-28T02:56:24.702Z,14.68
2022-08-28T03:02:26.743Z,18.77
2022-08-28T03:08:29.098Z,19.00
2022-08-28T03:14:30.946Z,17.23
2022-08-28T03:20:32.922Z,18.48
2022-08-28T03:26:34.744Z,13.30
2022-08-28T03:32:37.376Z,16.50
2022-08-28T03:38:39.510Z,15.30
2022-08-28T03:44:41.241Z,13.40
2022-08-28T03:50:43.082Z,14.02
2022-08-28T03:56:45.559Z,17.42
2022-08-28T04:02:47.415Z,16.23
2022-08-28T04:08:49.796Z,17.20
2022-08-28T04:14:54.239Z,20.35
2022-08-28T04:21:07.798Z,19.70
2022-08-28T04:27:09.586Z,19.35
2022-08-28T04:33:11.523Z,17.92
2022-08-28T04:39:13.414Z,15.43
2022-08-28T04:45:15.283Z,21.92
2022-08-28T04:51:17.032Z,13.73
2022-08-28T04:57:18.793Z,16.00
2022-08-28T05:03:21.275Z,21.35
2022-08-28T05:09:23.034Z,18.15
2022-08-28T05:15:24.770Z,17.27
2022-08-28T05:21:27.737Z,15.43
2022-08-28T05:27:29.536Z,22.20
2022-08-28T05:33:31.529Z,17.83
2022-08-28T05:39:33.316Z,34.47
2022-08-28T05:45:35.116Z,20.58
2022-08-28T05:51:40.343Z,17.98
2022-08-28T05:57:42.158Z,21.92
2022-08-28T06:03:47.417Z,18.30
2022-08-28T06:09:49.387Z,19.08
2022-08-28T06:15:51.237Z,20.35
2022-08-28T06:21:58.723Z,17.88
2022-08-28T06:28:00.882Z,22.42
2022-08-28T06:34:03.159Z,19.65
2022-08-28T06:40:05.379Z,14.90
2022-08-28T06:46:07.996Z,17.15
2022-08-28T06:52:09.867Z,16.13
2022-08-28T06:58:13.116Z,17.63
2022-08-28T07:04:14.966Z,16.83
2022-08-28T07:10:16.985Z,15.48
2022-08-28T07:16:27.257Z,15.48
2022-08-28T07:22:29.660Z,17.45
2022-08-28T07:28:31.438Z,16.50
2022-08-28T07:34:39.031Z,21.33
2022-08-28T07:40:42.366Z,20.60
2022-08-28T07:46:44.583Z,19.58
2022-08-28T07:52:46.351Z,16.10
2022-08-28T07:58:48.558Z,20.02
2022-08-28T08:04:50.268Z,13.38
2022-08-28T08:11:11.365Z,15.75
2022-08-28T08:17:18.328Z,18.00
2022-08-28T08:23:20.071Z,13.30
2022-08-28T08:29:21.906Z,12.70
2022-08-28T08:35:23.773Z,20.80
2022-08-28T08:41:39.149Z,14.95
2022-08-28T08:47:48.090Z,18.98
2022-08-28T08:54:07.644Z,15.75
2022-08-28T09:00:15.729Z,14.93
2022-08-28T09:06:27.045Z,15.68
2022-08-28T09:12:31.516Z,17.05
2022-08-28T09:18:34.357Z,16.90
2022-08-28T09:24:38.951Z,15.27
2022-08-28T09:30:44.235Z,19.92
2022-08-28T09:36:46.503Z,11.85
2022-08-28T09:43:18.962Z,13.68
2022-08-28T09:49:27.766Z,12.07
2022-08-28T09:55:35.476Z,12.40
2022-08-28T10:07:57.755Z,16.38
2022-08-28T10:14:23.093Z,15.15
2022-08-28T10:21:00.576Z,11.13
2022-08-28T10:33:40.434Z,9.85
2022-08-28T10:45:53.265Z,12.73
2022-08-28T10:52:06.340Z,8.82
2022-08-28T10:58:24.984Z,15.32
2022-08-28T11:04:29.347Z,8.68
2022-08-28T11:10:36.940Z,15.43
2022-08-28T11:16:44.334Z,12.05
2022-08-28T11:23:01.734Z,11.75
2022-08-28T11:29:06.032Z,12.32
2022-08-28T11:35:29.457Z,13.23
2022-08-28T11:41:35.214Z,11.50
2022-08-28T11:47:45.259Z,13.15
2022-08-28T11:54:21.207Z,12.23
2022-08-28T12:00:22.952Z,8.02
2022-08-28T12:06:49.854Z,5.90
2022-08-28T12:13:05.762Z,8.13
2022-08-28T12:19:07.948Z,10.27
2022-08-28T12:25:27.451Z,8.27
2022-08-28T12:31:50.186Z,9.48
2022-08-28T12:37:55.033Z,9.07
2022-08-28T12:43:59.624Z,9.27
2022-08-28T12:50:25.860Z,10.75
2022-08-28T12:56:30.192Z,9.48
2022-08-28T13:02:34.027Z,8.50
2022-08-28T13:08:37.417Z,9.52
2022-08-28T13:14:43.393Z,12.55
2022-08-28T13:20:45.142Z,10.93
2022-08-28T13:26:47.987Z,9.35
2022-08-28T13:33:20.076Z,8.88
2022-08-28T13:39:22.799Z,7.72
2022-08-28T13:45:24.912Z,13.43
2022-08-28T13:51:27.037Z,12.20
2022-08-28T13:57:29.331Z,8.50
2022-08-28T14:03:37.893Z,8.60
2022-08-28T14:09:40.332Z,9.75
2022-08-28T14:15:43.136Z,12.30
2022-08-28T14:21:45.291Z,9.07
2022-08-28T14:27:47.110Z,9.60
2022-08-28T14:33:48.893Z,7.80
2022-08-28T14:39:51.087Z,11.68
2022-08-28T14:45:53.027Z,7.80
2022-08-28T14:51:56.721Z,10.75
2022-08-28T14:57:58.953Z,11.32
2022-08-28T15:04:00.730Z,10.50
2022-08-28T15:10:02.584Z,8.98
2022-08-28T15:16:15.482Z,6.95
2022-08-28T15:22:27.145Z,7.80
2022-08-28T15:28:29.354Z,5.72
2022-08-28T15:34:31.198Z,6.72
2022-08-28T15:40:52.084Z,8.85
2022-08-28T15:46:56.591Z,13.60
2022-08-28T15:52:58.904Z,6.78
2022-08-28T15:59:01.280Z,7.75
2022-08-28T16:05:03.097Z,6.80
2022-08-28T16:11:04.921Z,8.90
2022-08-28T16:17:10.805Z,8.90
2022-08-28T16:23:13.502Z,5.25
2022-08-28T16:29:15.239Z,9.30
2022-08-28T16:35:17.095Z,6.85
2022-08-28T16:41:22.901Z,7.78
2022-08-28T16:47:24.686Z,7.38
2022-08-28T16:53:27.349Z,6.00
2022-08-28T16:59:30.913Z,11.55
2022-08-28T17:05:32.648Z,5.80
2022-08-28T17:11:34.408Z,8.77
2022-08-28T17:17:36.560Z,8.02
2022-08-28T17:23:38.444Z,7.00
2022-08-28T17:29:40.353Z,12.10
2022-08-28T17:35:42.447Z,6.97
2022-08-28T17:41:44.324Z,5.05
2022-08-28T17:47:46.083Z,4.82
2022-08-28T17:53:47.855Z,5.60
2022-08-28T17:59:50.039Z,8.10
2022-08-28T18:05:51.777Z,6.07
2022-08-28T18:11:53.940Z,9.98
2022-08-28T18:17:56.038Z,6.38
2022-08-28T18:23:57.799Z,8.45
2022-08-28T18:29:59.566Z,5.75
2022-08-28T18:36:02.025Z,5.85
2022-08-28T18:42:04.030Z,5.22
2022-08-28T18:48:07.980Z,5.50
2022-08-28T18:54:10.901Z,6.35
2022-08-28T19:00:15.986Z,6.53
2022-08-28T19:06:17.922Z,5.80
2022-08-28T19:12:19.697Z,6.85
2022-08-28T19:18:21.505Z,7.07
2022-08-28T19:24:24.309Z,5.10
2022-08-28T19:30:28.251Z,7.28
2022-08-28T19:36:30.655Z,9.88
2022-08-28T19:42:32.503Z,10.45
2022-08-28T19:48:34.894Z,6.80
2022-08-28T19:54:38.606Z,7.88
2022-08-28T20:00:40.436Z,5.75
2022-08-28T20:06:43.139Z,8.27
2022-08-28T20:12:48.382Z,6.75
2022-08-28T20:18:50.935Z,6.70
2022-08-28T20:24:52.855Z,5.68
2022-08-28T20:30:54.800Z,3.78
2022-08-28T20:36:56.610Z,6.22
2022-08-28T20:43:00.032Z,6.55
2022-08-28T20:49:02.930Z,7.35
2022-08-28T20:55:07.602Z,8.48
2022-08-28T21:01:09.392Z,6.40
2022-08-28T21:07:12.829Z,8.23
2022-08-28T21:13:14.895Z,7.60
2022-08-28T21:19:16.885Z,6.05
2022-08-28T21:25:24.549Z,7.07
2022-08-28T21:31:26.386Z,7.87
2022-08-28T21:37:28.546Z,6.78
2022-08-28T21:43:31.747Z,9.23
2022-08-28T21:49:33.567Z,8.27
2022-08-28T21:55:37.040Z,8.93
2022-08-28T22:01:40.408Z,8.20
2022-08-28T22:07:42.509Z,8.77
2022-08-28T22:13:44.534Z,8.60
2022-08-28T22:19:46.672Z,7.05
2022-08-28T22:25:48.683Z,8.18
2022-08-28T22:31:50.437Z,8.13
2022-08-28T22:37:52.282Z,8.00
2022-08-28T22:43:54.071Z,7.00
2022-08-28T22:49:56.242Z,8.07
2022-08-28T22:55:58.974Z,6.72
2022-08-28T23:02:01.431Z,5.85
2022-08-28T23:08:03.428Z,7.75
2022-08-28T23:14:05.971Z,7.05
2022-08-28T23:20:10.101Z,8.70
2022-08-28T23:26:13.380Z,7.85
2022-08-28T23:32:15.231Z,11.80
2022-08-28T23:38:17.136Z,10.02
2022-08-28T23:44:19.964Z,9.25
2022-08-28T23:50:23.020Z,7.50
2022-08-28T23:56:28.139Z,7.75
